Time;durP1;ratioP1;P1;durP2;ratioP2;P2;SDS_P1;SDS_P2;PMS_P1;PMS_P2;Temp;Humidity;BMP_temperature;BMP_pressure;BME280_temperature;BME280_humidity;BME280_pressure;Samples;Min_cycle;Max_cycle;Signal;HPM_P1;HPM_P2
2023/03/13 00:01:15;;;;;;;14.43;13.30;;;10.20;10.80;;;;;;4928063;29;21005;-83
2023/03/13 00:03:45;;;;;;;14.43;13.23;;;10.20;1.50;;;;;;4922279;29;20449;-80
2023/03/13 00:06:14;;;;;;;13.83;13.20;;;10.20;11.20;;;;;;4920618;29;20969;-82
2023/03/13 00:08:43;;;;;;;14.07;13.20;;;10.20;1.00;;;;;;4921578;29;20597;-77
2023/03/13 00:11:14;;;;;;;14.00;13.20;;;10.20;1.00;;;;;;4918281;29;20559;-79
2023/03/13 00:13:43;;;;;;;14.07;13.03;;;10.20;1.00;;;;;;4920063;29;20471;-81
2023/03/13 00:16:13;;;;;;;14.00;13.20;;;10.20;4.60;;;;;;4921144;29;20560;-80
2023/03/13 00:18:46;;;;;;;13.90;13.10;;;10.20;1.00;;;;;;4923093;29;20504;-80
2023/03/13 00:21:16;;;;;;;14.20;13.30;;;10.20;1.00;;;;;;4916630;29;20479;-82
2023/03/13 00:23:44;;;;;;;14.00;13.27;;;10.20;1.00;;;;;;4918613;29;20504;-80
2023/03/13 00:26:14;;;;;;;14.17;13.50;;;10.20;1.00;;;;;;4917149;29;20469;-81
2023/03/13 00:28:43;;;;;;;14.90;13.90;;;10.20;1.00;;;;;;4919784;29;20490;-83
2023/03/13 00:31:14;;;;;;;15.17;14.10;;;10.20;5.50;;;;;;4919778;29;21055;-82
2023/03/13 00:33:44;;;;;;;14.20;13.40;;;10.10;9.90;;;;;;4920948;29;20502;-80
2023/03/13 00:36:15;;;;;;;14.33;13.43;;;10.20;16.70;;;;;;4920882;29;20471;-80
2023/03/13 00:38:44;;;;;;;15.10;14.20;;;10.20;1.40;;;;;;4919718;29;20737;-80
2023/03/13 00:41:14;;;;;;;14.10;13.43;;;10.20;1.00;;;;;;4917988;29;20500;-81
2023/03/13 00:43:43;;;;;;;14.00;13.00;;;10.20;1.00;;;;;;4922062;29;20458;-80
2023/03/13 00:46:13;;;;;;;14.00;13.37;;;10.20;1.00;;;;;;4919088;29;20562;-84
2023/03/13 00:48:42;;;;;;;14.47;13.67;;;10.20;1.00;;;;;;4919773;29;20479;-80
2023/03/13 00:51:10;;;;;;;13.67;12.90;;;10.20;1.00;;;;;;4918613;29;20482;-82
2023/03/13 00:53:40;;;;;;;14.03;13.10;;;10.20;1.00;;;;;;4919800;29;20472;-79
2023/03/13 00:56:09;;;;;;;13.60;12.90;;;10.20;1.00;;;;;;4923458;29;20467;-82
2023/03/13 00:58:39;;;;;;;13.70;12.90;;;10.20;1.00;;;;;;4924399;29;20456;-77
2023/03/13 01:01:09;;;;;;;15.50;14.30;;;10.20;1.00;;;;;;4924835;29;20510;-80
2023/03/13 01:03:38;;;;;;;13.10;12.60;;;10.20;1.00;;;;;;4926794;29;20466;-80
2023/03/13 01:06:10;;;;;;;13.80;12.90;;;10.10;1.00;;;;;;4920038;29;20575;-78
2023/03/13 01:08:40;;;;;;;14.63;13.30;;;10.10;1.00;;;;;;4919339;29;20496;-79
2023/03/13 01:11:10;;;;;;;16.10;15.00;;;10.20;1.00;;;;;;4923220;29;20488;-82
2023/03/13 01:13:39;;;;;;;13.87;13.10;;;10.20;1.00;;;;;;4919068;29;20533;-79
2023/03/13 01:16:09;;;;;;;14.67;13.97;;;10.10;1.00;;;;;;4918634;29;21296;-79
2023/03/13 01:18:39;;;;;;;13.40;12.87;;;10.10;1.00;;;;;;4919849;29;20467;-78
2023/03/13 01:21:08;;;;;;;14.67;13.57;;;10.10;1.00;;;;;;4913148;29;20485;-77
2023/03/13 01:23:36;;;;;;;13.90;13.20;;;10.10;1.00;;;;;;4913281;29;20814;-79
2023/03/13 01:26:07;;;;;;;13.00;12.40;;;10.10;1.00;;;;;;4917515;29;20526;-79
2023/03/13 01:28:37;;;;;;;13.90;13.07;;;10.00;1.00;;;;;;4913795;29;20492;-80
2023/03/13 01:31:12;;;;;;;13.27;12.77;;;10.00;1.00;;;;;;4920254;29;20489;-80
2023/03/13 01:33:41;;;;;;;12.73;12.10;;;10.00;1.00;;;;;;4913234;29;20543;-80
2023/03/13 01:36:09;;;;;;;12.80;12.37;;;10.10;5.30;;;;;;4916095;29;20461;-81
2023/03/13 01:38:37;;;;;;;13.17;12.57;;;10.00;10.60;;;;;;4916875;29;20483;-76
2023/03/13 01:41:08;;;;;;;13.27;12.57;;;10.10;4.60;;;;;;4915876;29;20487;-79
2023/03/13 01:43:37;;;;;;;13.20;12.30;;;10.10;1.00;;;;;;4916628;29;20459;-78
2023/03/13 01:46:13;;;;;;;12.77;12.37;;;10.00;1.00;;;;;;4914529;29;20467;-81
2023/03/13 01:48:47;;;;;;;12.87;12.37;;;10.00;1.00;;;;;;4901911;29;20478;-81
2023/03/13 01:51:20;;;;;;;14.10;13.03;;;10.00;1.00;;;;;;4917600;29;20473;-79
2023/03/13 01:53:54;;;;;;;13.33;12.73;;;10.00;4.70;;;;;;4918837;29;20465;-77
2023/03/13 01:56:29;;;;;;;13.17;12.43;;;10.00;1.00;;;;;;4919997;29;20985;-79
2023/03/13 01:58:59;;;;;;;13.20;12.60;;;10.00;1.00;;;;;;4921093;29;20468;-79
2023/03/13 02:01:27;;;;;;;12.83;12.23;;;10.00;1.00;;;;;;4918530;29;20484;-78
2023/03/13 02:03:57;;;;;;;13.13;12.50;;;10.10;1.00;;;;;;4919333;29;20459;-79
2023/03/13 02:06:29;;;;;;;12.53;12.03;;;10.00;1.00;;;;;;4921531;29;20450;-80
2023/03/13 02:09:02;;;;;;;12.50;12.10;;;10.00;3.80;;;;;;4920304;29;20725;-78
2023/03/13 02:11:40;;;;;;;12.90;12.20;;;10.00;25.00;;;;;;4919023;29;20473;-79
2023/03/13 02:14:10;;;;;;;12.87;12.30;;;10.00;16.60;;;;;;4919678;29;20491;-78
2023/03/13 02:16:39;;;;;;;13.00;12.60;;;10.00;21.90;;;;;;4922121;29;20528;-80
2023/03/13 02:19:18;;;;;;;13.67;12.97;;;10.00;17.90;;;;;;4921822;29;20545;-79
2023/03/13 02:21:52;;;;;;;12.93;12.27;;;10.00;16.70;;;;;;4920082;29;21551;-81
2023/03/13 02:24:31;;;;;;;13.13;12.60;;;10.00;81.10;;;;;;4912658;29;20468;-78
2023/03/13 02:27:01;;;;;;;13.00;12.60;;;10.00;99.90;;;;;;4917817;29;20459;-76
2023/03/13 02:29:29;;;;;;;13.50;12.80;;;10.00;99.90;;;;;;4916298;29;20494;-78
2023/03/13 02:31:57;;;;;;;13.97;13.03;;;10.10;99.90;;;;;;4918235;29;20492;-80
2023/03/13 02:34:30;;;;;;;13.60;12.90;;;10.10;99.90;;;;;;4916645;29;21003;-81
2023/03/13 02:36:59;;;;;;;13.10;12.50;;;10.20;99.90;;;;;;4916179;29;20490;-84
2023/03/13 02:39:29;;;;;;;13.37;12.57;;;10.20;99.90;;;;;;4916823;29;20479;-82
2023/03/13 02:41:59;;;;;;;12.80;12.50;;;10.30;99.90;;;;;;4901204;29;20574;-79
2023/03/13 02:44:29;;;;;;;13.13;12.63;;;10.30;99.90;;;;;;4918040;29;20966;-79
2023/03/13 02:46:57;;;;;;;13.37;12.63;;;10.30;99.90;;;;;;4919571;29;20465;-80
2023/03/13 02:49:28;;;;;;;12.77;12.37;;;10.30;99.90;;;;;;4919781;29;20475;-82
2023/03/13 02:51:58;;;;;;;12.80;12.50;;;10.20;99.90;;;;;;4916941;29;20512;-80
2023/03/13 02:54:30;;;;;;;12.97;12.47;;;10.20;99.90;;;;;;4919654;29;20511;-80
2023/03/13 02:57:02;;;;;;;12.80;12.30;;;10.20;99.90;;;;;;4918692;29;21336;-80
2023/03/13 02:59:33;;;;;;;13.60;12.77;;;10.20;99.90;;;;;;4917118;29;20511;-78
2023/03/13 03:02:02;;;;;;;13.40;12.70;;;10.20;99.90;;;;;;4914411;29;20476;-76
2023/03/13 03:04:30;;;;;;;13.30;12.50;;;10.30;99.90;;;;;;4917655;29;20530;-80
2023/03/13 03:06:59;;;;;;;13.10;12.50;;;10.30;99.90;;;;;;4918465;29;20460;-79
2023/03/13 03:09:27;;;;;;;13.10;12.70;;;10.20;1.00;;;;;;4917108;29;20495;-78
2023/03/13 03:11:55;;;;;;;12.87;12.57;;;10.20;1.00;;;;;;4918532;29;20487;-78
2023/03/13 03:14:23;;;;;;;12.90;12.60;;;10.30;1.00;;;;;;4918000;29;21142;-80
2023/03/13 03:16:53;;;;;;;13.17;12.57;;;10.30;1.00;;;;;;4916087;29;20519;-80
2023/03/13 03:19:21;;;;;;;13.27;12.87;;;10.30;1.00;;;;;;4914181;29;20445;-79
2023/03/13 03:21:49;;;;;;;12.80;12.50;;;10.30;1.00;;;;;;4915530;29;20935;-82
2023/03/13 03:24:17;;;;;;;12.90;12.40;;;10.30;1.00;;;;;;4914183;29;20481;-77
2023/03/13 03:26:45;;;;;;;13.10;12.60;;;10.40;1.00;;;;;;4914027;29;20457;-81
2023/03/13 03:29:14;;;;;;;13.50;13.10;;;10.30;31.10;;;;;;4917731;29;20580;-76
2023/03/13 03:31:42;;;;;;;12.60;12.30;;;10.30;99.90;;;;;;4916220;29;20520;-81
2023/03/13 03:34:11;;;;;;;12.60;12.20;;;10.30;99.90;;;;;;4914974;29;20627;-77
2023/03/13 03:36:39;;;;;;;13.07;12.67;;;10.40;99.90;;;;;;4916981;29;20504;-77
2023/03/13 03:39:07;;;;;;;13.73;12.63;;;10.40;99.90;;;;;;4915339;29;20494;-78
2023/03/13 03:41:36;;;;;;;13.30;13.00;;;10.30;1.00;;;;;;4915320;29;20543;-79
2023/03/13 03:44:04;;;;;;;14.20;13.60;;;10.40;42.10;;;;;;4917679;29;20490;-77
2023/03/13 03:46:33;;;;;;;13.43;13.03;;;10.40;99.90;;;;;;4917186;29;22306;-77
2023/03/13 03:49:01;;;;;;;13.50;13.00;;;10.40;99.90;;;;;;4918270;29;20492;-79
2023/03/13 03:51:30;;;;;;;13.40;13.10;;;10.50;1.00;;;;;;4914922;29;20491;-77
2023/03/13 03:53:58;;;;;;;14.00;13.50;;;10.60;92.40;;;;;;4918073;29;21057;-77
2023/03/13 03:56:26;;;;;;;13.60;13.30;;;10.60;1.00;;;;;;4918557;29;20483;-79
2023/03/13 03:58:55;;;;;;;13.70;13.30;;;10.60;1.00;;;;;;4919719;29;20479;-80
2023/03/13 04:01:23;;;;;;;14.10;13.60;;;10.60;1.00;;;;;;4919336;29;20495;-80
2023/03/13 04:03:51;;;;;;;14.07;13.67;;;10.70;42.70;;;;;;4916654;29;20464;-79
2023/03/13 04:06:19;;;;;;;14.00;13.60;;;10.60;99.90;;;;;;4921079;29;20476;-79
2023/03/13 04:08:48;;;;;;;14.57;14.07;;;10.70;99.90;;;;;;4920857;29;21091;-80
2023/03/13 04:11:16;;;;;;;14.20;13.90;;;10.80;43.40;;;;;;4923930;29;20488;-77
2023/03/13 04:13:44;;;;;;;14.50;14.10;;;10.80;99.90;;;;;;4922086;29;21036;-78
2023/03/13 04:16:12;;;;;;;14.60;14.27;;;10.80;1.00;;;;;;4920165;29;20507;-80
2023/03/13 04:18:40;;;;;;;14.37;14.07;;;10.80;1.00;;;;;;4919275;29;20550;-80
2023/03/13 04:21:09;;;;;;;14.80;14.40;;;10.90;1.00;;;;;;4918698;29;20473;-80
2023/03/13 04:23:37;;;;;;;14.20;13.90;;;10.80;1.00;;;;;;4918375;29;20590;-79
2023/03/13 04:26:06;;;;;;;15.07;14.50;;;10.90;1.00;;;;;;4915470;29;20467;-80
2023/03/13 04:28:34;;;;;;;14.33;13.93;;;10.90;1.00;;;;;;4917474;29;21111;-79
2023/03/13 04:31:03;;;;;;;14.57;14.17;;;10.90;1.00;;;;;;4916603;29;20510;-79
2023/03/13 04:33:31;;;;;;;14.70;14.30;;;10.90;1.00;;;;;;4914770;29;20496;-76
2023/03/13 04:35:59;;;;;;;15.00;14.50;;;10.90;1.00;;;;;;4918213;29;20445;-75
2023/03/13 04:38:27;;;;;;;15.00;14.50;;;10.90;20.60;;;;;;4918075;29;20558;-79
2023/03/13 04:40:55;;;;;;;15.00;14.60;;;10.90;99.90;;;;;;4924131;29;20572;-79
2023/03/13 04:43:24;;;;;;;15.20;14.80;;;10.80;99.90;;;;;;4919691;29;20464;-79
2023/03/13 04:45:54;;;;;;;14.90;14.50;;;10.80;99.90;;;;;;4924438;29;20542;-78
2023/03/13 04:48:22;;;;;;;15.00;14.60;;;10.90;99.90;;;;;;4918272;29;20466;-79
2023/03/13 04:50:50;;;;;;;15.27;14.60;;;10.90;99.90;;;;;;4918051;29;20493;-75
2023/03/13 04:53:19;;;;;;;15.00;14.60;;;10.80;99.90;;;;;;4916188;29;20998;-80
2023/03/13 04:55:48;;;;;;;14.83;14.43;;;10.80;99.90;;;;;;4918871;29;20463;-77
2023/03/13 04:58:16;;;;;;;15.03;14.53;;;10.80;99.90;;;;;;4917902;29;20469;-78
2023/03/13 05:00:46;;;;;;;14.93;14.43;;;10.80;99.90;;;;;;4916371;29;20480;-77
2023/03/13 05:03:15;;;;;;;14.90;14.50;;;10.80;99.90;;;;;;4917663;29;20517;-79
2023/03/13 05:05:43;;;;;;;14.83;14.30;;;10.80;99.90;;;;;;4920738;29;20463;-76
2023/03/13 05:08:11;;;;;;;14.20;13.90;;;10.80;99.90;;;;;;4918473;29;20472;-80
2023/03/13 05:10:42;;;;;;;14.90;14.50;;;10.80;99.90;;;;;;4921385;29;21323;-77
2023/03/13 05:13:10;;;;;;;14.93;14.50;;;10.90;99.90;;;;;;4919603;29;20515;-78
2023/03/13 05:15:38;;;;;;;15.07;14.67;;;10.90;99.90;;;;;;4922319;29;20453;-78
2023/03/13 05:18:08;;;;;;;14.93;14.57;;;10.90;99.90;;;;;;4921608;29;20456;-77
2023/03/13 05:20:36;;;;;;;15.70;15.10;;;10.90;99.90;;;;;;4916242;29;21005;-80
2023/03/13 05:23:04;;;;;;;15.10;14.60;;;10.90;99.90;;;;;;4920977;29;20469;-78
2023/03/13 05:25:32;;;;;;;15.30;14.70;;;10.90;99.90;;;;;;4914939;29;20458;-79
2023/03/13 05:28:00;;;;;;;15.75;15.23;;;11.00;99.90;;;;;;4918289;29;20650;-79
2023/03/13 05:30:28;;;;;;;15.27;14.77;;;11.00;99.90;;;;;;4916907;29;20511;-79
2023/03/13 05:32:56;;;;;;;15.50;15.10;;;11.00;99.90;;;;;;4923022;29;20451;-80
2023/03/13 05:35:26;;;;;;;15.40;15.00;;;11.10;69.90;;;;;;4918363;29;20458;-80
2023/03/13 05:37:54;;;;;;;15.20;14.80;;;11.10;1.00;;;;;;4915206;29;20536;-80
2023/03/13 05:40:22;;;;;;;15.73;15.23;;;11.20;1.00;;;;;;4914797;29;20563;-81
2023/03/13 05:42:50;;;;;;;15.43;15.03;;;11.20;99.90;;;;;;4921554;29;20468;-80
2023/03/13 05:45:19;;;;;;;15.90;15.40;;;11.30;99.90;;;;;;4916769;29;20465;-79
2023/03/13 05:47:47;;;;;;;15.80;15.40;;;11.20;1.00;;;;;;4914865;29;20520;-77
2023/03/13 05:50:15;;;;;;;15.47;15.07;;;11.20;1.00;;;;;;4917529;29;20484;-77
2023/03/13 05:52:45;;;;;;;16.80;15.47;;;11.20;1.00;;;;;;4919460;29;20563;-79
2023/03/13 05:55:13;;;;;;;15.70;15.30;;;11.20;1.00;;;;;;4918500;29;20463;-79
2023/03/13 05:57:44;;;;;;;15.53;15.13;;;11.20;99.90;;;;;;4920176;29;20454;-79
2023/03/13 06:00:14;;;;;;;15.50;15.10;;;11.20;1.00;;;;;;4915591;29;20847;-78
2023/03/13 06:02:43;;;;;;;15.43;15.03;;;11.20;1.00;;;;;;4916582;29;20449;-79
2023/03/13 06:05:11;;;;;;;15.50;15.10;;;11.30;99.90;;;;;;4918092;29;20477;-78
2023/03/13 06:07:39;;;;;;;15.80;15.40;;;11.30;99.90;;;;;;4919053;29;20456;-76
2023/03/13 06:10:10;;;;;;;15.50;15.10;;;11.30;99.90;;;;;;4920607;29;20483;-79
2023/03/13 06:12:39;;;;;;;15.80;15.30;;;11.30;99.90;;;;;;4913424;29;20465;-77
2023/03/13 06:15:08;;;;;;;15.67;15.27;;;11.30;99.90;;;;;;4916784;29;20456;-79
2023/03/13 06:17:39;;;;;;;15.60;15.20;;;11.30;1.00;;;;;;4915798;29;20461;-79
2023/03/13 06:20:08;;;;;;;15.73;15.30;;;11.40;1.00;;;;;;4916120;29;20488;-79
2023/03/13 06:22:36;;;;;;;15.70;15.30;;;11.40;1.00;;;;;;4912352;29;20463;-77
2023/03/13 06:25:05;;;;;;;15.60;15.10;;;11.40;1.00;;;;;;4916386;29;20456;-79
2023/03/13 06:27:35;;;;;;;15.50;15.10;;;11.40;1.00;;;;;;4922403;29;21146;-76
2023/03/13 06:30:04;;;;;;;15.50;15.10;;;11.40;1.00;;;;;;4917919;29;20496;-79
2023/03/13 06:32:32;;;;;;;15.63;15.23;;;11.50;1.00;;;;;;4921792;29;20496;-77
2023/03/13 06:35:00;;;;;;;16.60;15.80;;;11.40;1.00;;;;;;4920231;29;20468;-80
2023/03/13 06:37:28;;;;;;;15.80;15.30;;;11.40;1.00;;;;;;4919274;29;20864;-79
2023/03/13 06:39:56;;;;;;;15.80;15.40;;;11.50;1.00;;;;;;4918927;29;20531;-77
2023/03/13 06:42:25;;;;;;;16.10;15.60;;;11.50;1.00;;;;;;4919348;29;20974;-78
2023/03/13 06:44:54;;;;;;;15.70;15.30;;;11.50;1.00;;;;;;4918523;29;20468;-79
2023/03/13 06:47:22;;;;;;;15.90;15.40;;;11.50;1.00;;;;;;4913423;29;20519;-79
2023/03/13 06:49:50;;;;;;;16.33;15.93;;;11.50;1.00;;;;;;4918377;29;20465;-78
2023/03/13 06:52:18;;;;;;;16.07;15.57;;;11.50;1.00;;;;;;4916123;29;20484;-80
2023/03/13 06:54:48;;;;;;;15.50;15.10;;;11.50;71.20;;;;;;4919481;29;20458;-78
2023/03/13 06:57:16;;;;;;;15.57;15.17;;;11.50;99.90;;;;;;4918762;29;20457;-80
2023/03/13 06:59:44;;;;;;;15.93;15.43;;;11.50;99.90;;;;;;4914449;29;20448;-79
2023/03/13 07:02:13;;;;;;;16.03;15.53;;;11.50;99.90;;;;;;4916881;29;20445;-78
2023/03/13 07:04:42;;;;;;;16.00;15.60;;;11.60;99.90;;;;;;4912727;29;20461;-79
2023/03/13 07:07:12;;;;;;;15.77;15.30;;;11.50;99.90;;;;;;4919951;29;21053;-78
2023/03/13 07:09:56;;;;;;;16.10;15.60;;;11.50;99.90;;;;;;4916522;29;20459;-77
2023/03/13 07:12:24;;;;;;;16.67;16.17;;;11.60;99.90;;;;;;4918614;29;20489;-79
2023/03/13 07:14:52;;;;;;;15.80;15.40;;;11.60;99.90;;;;;;4914051;29;20454;-79
2023/03/13 07:17:22;;;;;;;15.80;15.40;;;11.60;99.90;;;;;;4917975;29;20485;-79
2023/03/13 07:19:50;;;;;;;15.97;15.50;;;11.60;99.90;;;;;;4918315;29;20890;-77
2023/03/13 07:22:18;;;;;;;15.97;15.53;;;11.60;99.90;;;;;;4916829;29;20457;-79
2023/03/13 07:24:46;;;;;;;15.63;15.23;;;11.60;99.90;;;;;;4917954;29;20461;-80
2023/03/13 07:27:16;;;;;;;15.80;15.40;;;11.70;99.90;;;;;;4918444;29;20966;-79
2023/03/13 07:29:44;;;;;;;15.70;15.30;;;11.70;99.90;;;;;;4916184;29;20472;-79
2023/03/13 07:32:12;;;;;;;16.03;15.47;;;11.80;99.90;;;;;;4916135;29;20485;-79
2023/03/13 07:34:43;;;;;;;15.70;15.30;;;11.70;99.90;;;;;;4910805;29;20462;-79
2023/03/13 07:37:12;;;;;;;16.27;15.80;;;11.80;99.90;;;;;;4919436;29;20560;-79
2023/03/13 07:39:40;;;;;;;16.23;15.83;;;11.80;99.90;;;;;;4919737;29;20854;-77
2023/03/13 07:42:10;;;;;;;16.40;15.90;;;11.80;99.90;;;;;;4921247;29;20476;-76
2023/03/13 07:44:38;;;;;;;16.50;16.00;;;11.90;99.90;;;;;;4920862;29;20873;-77
2023/03/13 07:47:06;;;;;;;16.30;15.80;;;11.90;99.90;;;;;;4919896;29;20464;-76
2023/03/13 07:49:39;;;;;;;16.53;16.07;;;11.90;99.90;;;;;;4919332;29;20924;-78
2023/03/13 07:52:09;;;;;;;16.43;15.93;;;11.90;99.90;;;;;;4903442;29;20485;-77
2023/03/13 07:54:37;;;;;;;16.50;16.00;;;11.90;99.90;;;;;;4917975;29;20466;-76
2023/03/13 07:57:05;;;;;;;16.73;16.13;;;11.90;99.90;;;;;;4916671;29;20461;-78
2023/03/13 07:59:33;;;;;;;16.13;15.63;;;11.80;99.90;;;;;;4918159;29;20464;-77
2023/03/13 08:02:03;;;;;;;16.90;16.40;;;11.90;99.90;;;;;;4916731;29;20483;-80
2023/03/13 08:04:31;;;;;;;16.60;16.00;;;11.90;99.90;;;;;;4921347;29;20975;-80
2023/03/13 08:06:59;;;;;;;17.13;16.53;;;11.90;99.90;;;;;;4918781;29;20461;-80
2023/03/13 08:09:32;;;;;;;16.90;16.40;;;11.90;71.50;;;;;;4917692;29;21250;-79
2023/03/13 08:12:00;;;;;;;16.50;16.00;;;12.00;99.90;;;;;;4920781;29;20884;-78
2023/03/13 08:14:28;;;;;;;16.80;16.30;;;12.00;99.90;;;;;;4916078;29;20474;-77
2023/03/13 08:16:58;;;;;;;16.73;16.23;;;12.10;62.80;;;;;;4905842;29;21111;-75
2023/03/13 08:19:26;;;;;;;17.20;16.50;;;12.10;71.20;;;;;;4919794;29;20464;-78
2023/03/13 08:21:54;;;;;;;16.90;16.40;;;12.40;1.00;;;;;;4921628;29;20492;-78
2023/03/13 08:24:22;;;;;;;17.00;16.50;;;12.50;1.00;;;;;;4921606;29;20465;-80
2023/03/13 08:26:52;;;;;;;17.67;17.00;;;12.60;1.00;;;;;;4922304;29;20505;-78
2023/03/13 08:29:22;;;;;;;17.60;16.90;;;12.60;99.90;;;;;;4920528;29;20520;-78
2023/03/13 08:31:51;;;;;;;17.07;16.57;;;12.60;1.00;;;;;;4920777;29;20494;-80
2023/03/13 08:34:19;;;;;;;17.67;17.17;;;12.60;99.90;;;;;;4915528;29;20556;-81
2023/03/13 08:36:48;;;;;;;17.77;17.20;;;12.60;99.90;;;;;;4921088;29;20460;-80
2023/03/13 08:39:17;;;;;;;17.90;17.30;;;12.60;99.90;;;;;;4922931;29;20971;-79
2023/03/13 08:41:46;;;;;;;18.00;17.40;;;12.60;99.90;;;;;;4920719;29;21005;-80
2023/03/13 08:44:17;;;;;;;18.23;17.43;;;12.60;1.00;;;;;;4923581;29;20461;-78
2023/03/13 08:46:46;;;;;;;17.97;17.37;;;12.70;32.30;;;;;;4925566;29;20556;-79
2023/03/13 08:49:16;;;;;;;17.70;17.13;;;12.60;99.90;;;;;;4918208;29;21374;-78
2023/03/13 08:51:44;;;;;;;17.60;17.10;;;12.60;32.10;;;;;;4926328;29;20485;-78
2023/03/13 08:54:12;;;;;;;18.27;17.67;;;12.60;1.00;;;;;;4915586;29;20842;-79
2023/03/13 08:56:42;;;;;;;17.70;17.10;;;12.60;64.60;;;;;;4922741;29;21046;-79
2023/03/13 08:59:11;;;;;;;17.70;17.10;;;12.60;99.90;;;;;;4920275;29;20477;-79
2023/03/13 09:01:41;;;;;;;17.50;16.90;;;12.60;32.00;;;;;;4907248;29;20941;-78
2023/03/13 09:04:09;;;;;;;17.43;16.83;;;12.60;99.90;;;;;;4920499;29;20462;-78
2023/03/13 09:06:38;;;;;;;17.60;16.90;;;12.70;1.00;;;;;;4924105;29;20974;-79
2023/03/13 09:09:07;;;;;;;17.77;17.17;;;12.70;98.50;;;;;;4924468;29;20454;-79
2023/03/13 09:11:37;;;;;;;17.27;16.77;;;12.80;96.40;;;;;;4919703;29;20486;-77
2023/03/13 09:14:05;;;;;;;17.50;16.90;;;12.80;92.80;;;;;;4921435;29;20964;-76
2023/03/13 09:16:34;;;;;;;17.60;16.90;;;12.80;98.40;;;;;;4919026;29;20462;-78
2023/03/13 09:19:04;;;;;;;17.40;16.90;;;12.80;99.90;;;;;;4921107;29;20457;-79
2023/03/13 09:21:33;;;;;;;17.40;16.90;;;12.90;1.00;;;;;;4915672;29;20473;-79
2023/03/13 09:24:02;;;;;;;17.60;16.90;;;12.90;1.00;;;;;;4920471;29;20461;-80
2023/03/13 09:26:31;;;;;;;17.87;17.17;;;12.90;1.00;;;;;;4917602;29;21229;-78
2023/03/13 09:29:00;;;;;;;17.50;17.00;;;12.90;1.00;;;;;;4917369;29;20446;-77
2023/03/13 09:31:30;;;;;;;17.83;17.30;;;12.90;1.00;;;;;;4918951;29;20489;-79
2023/03/13 09:33:58;;;;;;;17.70;17.10;;;13.00;99.90;;;;;;4914286;29;20493;-79
2023/03/13 09:36:28;;;;;;;17.70;17.20;;;13.10;20.20;;;;;;4917367;29;20461;-79
2023/03/13 09:38:58;;;;;;;18.07;17.37;;;13.30;99.90;;;;;;4919692;29;20573;-80
2023/03/13 09:41:34;;;;;;;17.90;17.30;;;13.50;1.00;;;;;;4920843;29;20489;-79
2023/03/13 09:44:10;;;;;;;18.27;17.57;;;13.60;93.20;;;;;;4915678;29;20585;-80
2023/03/13 09:46:43;;;;;;;18.40;17.90;;;14.80;4.30;;;;;;4919339;29;20521;-80
2023/03/13 09:49:17;;;;;;;18.57;18.00;;;15.70;99.90;;;;;;4919255;29;20457;-80
2023/03/13 09:51:52;;;;;;;18.53;17.90;;;16.50;1.00;;;;;;4921036;29;20476;-79
2023/03/13 09:54:27;;;;;;;18.83;18.33;;;17.50;1.00;;;;;;4921888;29;20481;-79
2023/03/13 09:56:59;;;;;;;18.83;18.03;;;17.50;1.00;;;;;;4904261;29;20457;-80
2023/03/13 09:59:45;;;;;;;18.90;18.23;;;17.60;99.90;;;;;;4916917;29;20519;-79
2023/03/13 10:02:30;;;;;;;17.90;17.40;;;17.90;99.90;;;;;;4921139;29;20571;-80
2023/03/13 10:05:08;;;;;;;17.30;16.80;;;18.40;99.90;;;;;;4921183;29;20465;-79
2023/03/13 10:07:38;;;;;;;18.07;17.40;;;19.00;99.90;;;;;;4920658;29;20473;-79
2023/03/13 10:10:15;;;;;;;17.77;17.10;;;19.10;99.90;;;;;;4920646;29;20549;-79
2023/03/13 10:12:46;;;;;;;18.00;17.50;;;19.10;99.90;;;;;;4918620;29;20476;-77
2023/03/13 10:15:41;;;;;;;17.90;17.33;;;19.30;99.90;;;;;;4919640;29;20467;-79
2023/03/13 10:18:18;;;;;;;17.97;17.40;;;19.30;99.90;;;;;;4908458;29;20464;-77
2023/03/13 10:20:49;;;;;;;17.87;17.17;;;19.40;99.90;;;;;;4922715;29;20899;-79
2023/03/13 10:23:26;;;;;;;17.73;17.13;;;19.80;99.90;;;;;;4915735;29;20465;-82
2023/03/13 10:25:54;;;;;;;17.70;16.90;;;20.30;99.90;;;;;;4915507;29;20469;-81
2023/03/13 10:28:22;;;;;;;18.10;17.43;;;20.90;99.90;;;;;;4914978;29;21506;-80
2023/03/13 10:30:54;;;;;;;17.60;17.00;;;21.30;99.90;;;;;;4914516;29;20995;-81
2023/03/13 10:33:25;;;;;;;17.53;17.00;;;21.70;99.90;;;;;;4914265;29;20477;-81
2023/03/13 10:36:06;;;;;;;17.20;16.70;;;21.40;99.90;;;;;;4916118;29;20478;-81
2023/03/13 10:38:47;;;;;;;17.30;16.60;;;19.90;99.90;;;;;;4915779;29;20455;-81
2023/03/13 10:41:27;;;;;;;17.00;16.50;;;18.90;99.90;;;;;;4917445;29;20491;-80
2023/03/13 10:44:00;;;;;;;18.27;17.00;;;18.20;99.90;;;;;;4909978;29;20464;-80
2023/03/13 10:46:30;;;;;;;17.03;16.50;;;17.70;99.90;;;;;;4915914;29;20466;-80
2023/03/13 10:49:02;;;;;;;17.23;16.63;;;17.60;99.90;;;;;;4916659;29;20464;-79
2023/03/13 10:51:36;;;;;;;17.30;16.70;;;17.20;99.90;;;;;;4917228;29;20482;-80
2023/03/13 10:54:16;;;;;;;17.50;16.90;;;17.30;99.90;;;;;;4917168;29;20566;-80
2023/03/13 10:56:44;;;;;;;17.70;17.07;;;17.70;99.90;;;;;;4921428;29;20465;-80
2023/03/13 10:59:22;;;;;;;17.70;17.00;;;18.60;99.90;;;;;;4918073;29;20461;-79
2023/03/13 11:01:52;;;;;;;17.73;17.03;;;19.80;99.90;;;;;;4919808;29;20481;-80
2023/03/13 11:04:29;;;;;;;17.87;17.27;;;21.90;99.90;;;;;;4918943;29;20830;-79
2023/03/13 11:07:04;;;;;;;17.77;16.97;;;24.00;99.90;;;;;;4920779;29;20454;-79
2023/03/13 11:09:33;;;;;;;17.60;17.00;;;23.70;99.90;;;;;;4921373;29;20474;-77
2023/03/13 11:12:05;;;;;;;17.87;17.30;;;23.30;99.90;;;;;;4920459;29;20485;-79
2023/03/13 11:14:33;;;;;;;18.23;17.60;;;23.70;99.90;;;;;;4922169;29;20492;-79
2023/03/13 11:17:06;;;;;;;17.40;16.90;;;25.10;99.90;;;;;;4923901;29;20456;-80
2023/03/13 11:19:49;;;;;;;17.50;16.80;;;24.20;99.90;;;;;;4903285;29;20473;-79
2023/03/13 11:22:30;;;;;;;17.20;16.70;;;24.20;99.90;;;;;;4897851;29;20448;-79
2023/03/13 11:25:12;;;;;;;17.00;16.40;;;24.20;99.90;;;;;;4919267;29;20464;-80
2023/03/13 11:27:45;;;;;;;17.43;16.83;;;24.80;99.90;;;;;;4919317;29;20454;-78
2023/03/13 11:30:25;;;;;;;17.53;17.03;;;26.20;99.90;;;;;;4921143;29;20484;-80
2023/03/13 11:32:56;;;;;;;17.50;16.80;;;27.40;99.90;;;;;;4922476;29;20472;-81
2023/03/13 11:35:38;;;;;;;16.50;16.10;;;28.30;99.90;;;;;;4920707;29;21017;-78
2023/03/13 11:38:13;;;;;;;16.07;15.67;;;26.80;99.90;;;;;;4919225;29;21106;-80
2023/03/13 11:40:52;;;;;;;17.27;16.57;;;24.80;99.90;;;;;;4920904;29;20486;-79
2023/03/13 11:43:33;;;;;;;16.40;15.90;;;23.30;99.90;;;;;;4920070;29;20459;-80
2023/03/13 11:46:22;;;;;;;17.57;16.97;;;21.60;99.90;;;;;;4915568;29;20467;-79
2023/03/13 11:49:23;;;;;;;17.30;16.80;;;20.70;99.90;;;;;;4925224;29;20485;-80
2023/03/13 11:52:06;;;;;;;17.07;16.67;;;20.10;99.90;;;;;;4922506;29;20560;-80
2023/03/13 11:54:49;;;;;;;17.60;17.10;;;19.30;99.90;;;;;;4921463;29;20481;-78
2023/03/13 11:57:28;;;;;;;16.80;16.30;;;19.00;99.90;;;;;;4922255;29;20531;-80
2023/03/13 12:00:19;;;;;;;17.00;16.60;;;18.90;99.90;;;;;;4922187;29;20464;-81
2023/03/13 12:02:51;;;;;;;17.50;16.97;;;18.70;99.90;;;;;;4919562;29;20471;-79
2023/03/13 12:05:21;;;;;;;16.70;16.20;;;18.50;99.90;;;;;;4925664;29;21031;-80
2023/03/13 12:07:57;;;;;;;16.53;16.03;;;18.60;99.90;;;;;;4918876;29;20608;-80
2023/03/13 12:10:30;;;;;;;16.80;16.30;;;18.70;99.90;;;;;;4916780;29;20531;-80
2023/03/13 12:13:05;;;;;;;16.90;16.20;;;18.70;99.90;;;;;;4913284;29;20468;-78
2023/03/13 12:15:38;;;;;;;16.80;16.40;;;18.70;99.90;;;;;;4918109;29;20480;-81
2023/03/13 12:18:14;;;;;;;16.53;16.13;;;18.60;99.90;;;;;;4923778;29;20460;-79
2023/03/13 12:20:48;;;;;;;16.40;16.00;;;18.70;99.90;;;;;;4921504;29;20571;-78
2023/03/13 12:23:22;;;;;;;16.43;15.90;;;18.70;99.90;;;;;;4919828;29;21031;-79
2023/03/13 12:25:54;;;;;;;16.90;16.40;;;18.70;99.90;;;;;;4918512;29;20464;-80
2023/03/13 12:28:35;;;;;;;16.97;16.20;;;18.70;99.90;;;;;;4920320;29;20524;-78
2023/03/13 12:31:11;;;;;;;17.37;16.53;;;18.70;99.90;;;;;;4918078;29;20488;-81
2023/03/13 12:33:44;;;;;;;16.40;15.90;;;18.80;99.90;;;;;;4915543;29;20524;-80
2023/03/13 12:36:17;;;;;;;16.63;16.13;;;18.80;99.90;;;;;;4919418;29;20519;-80
2023/03/13 12:38:52;;;;;;;16.13;15.73;;;18.80;99.90;;;;;;4915489;29;20496;-80
2023/03/13 12:41:25;;;;;;;17.10;16.50;;;18.80;99.90;;;;;;4917360;29;20480;-80
2023/03/13 12:43:56;;;;;;;16.20;15.70;;;18.80;99.90;;;;;;4921036;29;21031;-79
2023/03/13 12:46:41;;;;;;;16.93;16.20;;;18.80;99.90;;;;;;4922975;29;20456;-79
2023/03/13 12:49:48;;;;;;;16.83;16.43;;;18.90;99.90;;;;;;4918199;29;20487;-79